createdAt,value
2018-03-08T15:30:30.020Z,24.4848
2018-03-08T15:30:40.846Z,24.4848
2018-03-08T15:30:52.309Z,24.4721
2018-03-08T15:31:03.088Z,24.4671
2018-03-08T15:31:13.906Z,24.462
2018-03-08T15:31:24.397Z,24.4569
2018-03-08T15:31:35.212Z,24.4468
2018-03-08T15:31:45.986Z,24.4392
2018-03-08T15:31:56.804Z,24.4215
2018-03-08T15:32:07.290Z,24.4114
2018-03-08T15:32:18.063Z,24.4291
2018-03-08T15:32:29.170Z,24.4342
2018-03-08T15:32:40.277Z,24.4114
2018-03-08T15:33:11.258Z,24.4215
2018-03-08T15:33:22.039Z,24.4114
2018-03-08T15:33:32.863Z,24.3886
2018-03-08T15:33:44.094Z,24.3962
2018-03-08T15:33:54.912Z,24.4114
2018-03-08T15:34:05.478Z,24.3987
2018-03-08T15:34:16.257Z,24.3734
2018-03-08T15:34:27.362Z,24.3455
2018-03-08T15:34:37.851Z,24.3658
2018-03-08T15:34:48.956Z,24.4418
2018-03-08T15:34:59.465Z,24.4899
2018-03-08T15:35:10.321Z,24.5684
2018-03-08T15:35:21.100Z,24.5734
2018-03-08T15:35:32.211Z,24.5861
2018-03-08T15:35:43.317Z,24.6089
2018-03-08T15:35:54.143Z,24.6266
2018-03-08T15:36:05.310Z,24.657
2018-03-08T15:36:16.424Z,24.6747
2018-03-08T15:36:27.201Z,24.6925
2018-03-08T15:36:37.977Z,24.695
2018-03-08T15:36:48.796Z,24.7228
2018-03-08T15:36:59.902Z,24.7279
2018-03-08T15:37:10.679Z,24.7178
2018-03-08T15:37:21.795Z,24.6925
2018-03-08T15:37:32.899Z,24.7026
2018-03-08T15:38:53.569Z,24.6773
2018-03-08T15:39:54.369Z,24.6241
2018-03-08T15:40:55.615Z,24.9052
2018-03-08T15:42:23.774Z,26.3128
2018-03-08T15:43:24.836Z,26.9
2018-03-08T15:44:25.639Z,27.0215
2018-03-08T15:45:27.637Z,27.062
2018-03-08T15:45:28.617Z,27.0519
2018-03-08T15:45:29.395Z,27.0569
2018-03-08T15:45:30.272Z,27.0468
2018-03-08T15:45:31.345Z,27.0519
2018-03-08T15:45:31.829Z,27.0569
2018-03-08T15:45:32.894Z,27.0569
2018-03-08T15:45:33.675Z,27.0519
2018-03-08T15:45:34.654Z,27.0519
2018-03-08T15:45:35.439Z,27.0468
2018-03-08T15:45:36.220Z,27.0468
2018-03-08T15:45:37.289Z,27.0468
2018-03-08T15:45:37.983Z,27.0468
2018-03-08T15:45:38.761Z,27.0569
2018-03-08T15:45:40.344Z,27.0316
2018-03-08T15:45:41.413Z,27.0266
2018-03-08T15:45:42.478Z,27.0063
2018-03-08T15:45:43.551Z,26.981
2018-03-08T15:45:44.242Z,26.981
2018-03-08T15:45:45.356Z,26.976
2018-03-08T15:45:46.426Z,26.9506
2018-03-08T15:45:47.491Z,26.9304
2018-03-08T15:45:48.267Z,26.9152
2018-03-08T15:45:49.248Z,26.9
2018-03-08T15:45:50.318Z,26.8798
2018-03-08T15:45:51.296Z,26.8697
2018-03-08T15:45:52.081Z,26.8443
2018-03-08T15:45:52.565Z,26.8342
2018-03-08T15:45:53.748Z,26.819
2018-03-08T15:45:54.239Z,26.8089
2018-03-08T15:45:55.360Z,26.7785
2018-03-08T15:45:56.138Z,26.7583
2018-03-08T15:45:57.206Z,26.738
2018-03-08T15:45:58.187Z,26.7178
2018-03-08T15:45:59.253Z,26.7026
2018-03-08T15:46:00.322Z,26.6722
2018-03-08T15:46:01.387Z,26.657
2018-03-08T15:46:02.166Z,26.6419
2018-03-08T15:46:02.944Z,26.6317
2018-03-08T15:46:03.722Z,26.5963
2018-03-08T15:46:04.501Z,26.5862
2018-03-08T15:46:05.688Z,26.5355
2018-03-08T15:46:06.763Z,26.5305
2018-03-08T15:46:07.831Z,26.5153
2018-03-08T15:46:08.894Z,26.4951
2018-03-08T15:46:09.959Z,26.4697
2018-03-08T15:46:10.739Z,26.4647
2018-03-08T15:46:11.720Z,26.4545
2018-03-08T15:46:12.497Z,26.4444
2018-03-08T15:46:13.188Z,26.4444
2018-03-08T15:46:13.972Z,26.4242
2018-03-08T15:46:15.038Z,26.4039
2018-03-08T15:46:15.814Z,26.3989
2018-03-08T15:46:16.591Z,26.3685
2018-03-08T15:46:17.484Z,26.3634
2018-03-08T15:46:18.551Z,26.3634
2018-03-08T15:46:19.619Z,26.3533
2018-03-08T15:46:20.397Z,26.3432
2018-03-08T15:46:21.174Z,26.328
2018-03-08T15:46:22.209Z,26.3229
2018-03-08T15:46:23.274Z,26.3128
2018-03-08T15:46:24.339Z,26.2875
2018-03-08T15:46:25.117Z,26.2774
2018-03-08T15:46:26.185Z,26.247
2018-03-08T15:46:27.165Z,26.2369
2018-03-08T15:46:27.943Z,26.2369
2018-03-08T15:46:29.011Z,26.2217
2018-03-08T15:46:30.081Z,26.2014
2018-03-08T15:46:30.855Z,26.2014
2018-03-08T15:46:31.921Z,26.1812
2018-03-08T15:46:32.413Z,26.171
2018-03-08T15:46:33.479Z,26.1812
2018-03-08T15:46:34.544Z,26.171
2018-03-08T15:46:35.385Z,26.166
2018-03-08T15:46:36.449Z,26.1609
2018-03-08T15:46:49.484Z,26.1305
2018-03-08T15:46:50.484Z,26.1154
2018-03-08T15:46:50.990Z,26.1204
2018-03-08T15:46:51.782Z,26.1204
2018-03-08T15:46:52.977Z,26.1103
2018-03-08T15:46:54.057Z,26.1204
2018-03-08T15:46:54.763Z,26.1103
2018-03-08T15:46:55.582Z,26.1204
2018-03-08T15:46:56.491Z,26.1154
2018-03-08T15:46:57.290Z,26.1255
2018-03-08T15:46:57.796Z,26.1305
2018-03-08T15:46:59.078Z,26.1204
2018-03-08T15:46:59.872Z,26.1305
2018-03-08T15:47:01.156Z,26.1204
2018-03-08T15:47:01.959Z,26.1255
2018-03-08T15:47:02.753Z,26.1204
2018-03-08T15:47:04.159Z,26.1356
2018-03-08T15:47:05.242Z,26.1457
2018-03-08T15:47:06.322Z,26.1407
2018-03-08T15:47:07.404Z,26.1305
2018-03-08T15:47:08.201Z,26.1407
2018-03-08T15:47:09.284Z,26.1407
2018-03-08T15:47:10.075Z,26.1407
2018-03-08T15:47:11.075Z,26.1457
2018-03-08T15:47:11.870Z,26.1407
2018-03-08T15:47:13.152Z,26.1508
2018-03-08T15:47:13.948Z,26.1407
2018-03-08T15:47:15.027Z,26.1407
2018-03-08T15:47:15.866Z,26.1558
2018-03-08T15:47:16.574Z,26.1407
2018-03-08T15:47:17.371Z,26.1457
2018-03-08T15:47:18.164Z,26.1558
2018-03-08T15:47:19.252Z,26.1609
2018-03-08T15:47:20.046Z,26.1457
2018-03-08T15:47:21.042Z,26.1407
2018-03-08T15:47:22.122Z,26.1558
2018-03-08T15:47:22.959Z,26.1457
2018-03-08T15:47:24.152Z,26.1508
2018-03-08T15:47:24.697Z,26.1508
2018-03-08T15:47:25.581Z,26.1508
2018-03-08T15:47:26.769Z,26.1508
2018-03-08T15:47:27.878Z,26.1508
2018-03-08T15:47:28.747Z,26.1356
2018-03-08T15:47:29.960Z,26.1407
2018-03-08T15:47:30.918Z,26.1407
2018-03-08T15:47:31.725Z,26.1457
2018-03-08T15:47:32.808Z,26.1457
2018-03-08T15:47:33.602Z,26.1407
2018-03-08T15:47:34.696Z,26.1457
2018-03-08T15:47:35.598Z,26.1457
2018-03-08T15:47:36.392Z,26.1508
2018-03-08T15:47:37.190Z,26.1407
2018-03-08T15:47:37.984Z,26.1457
2018-03-08T15:47:39.064Z,26.1457
2018-03-08T15:47:40.147Z,26.1457
2018-03-08T15:47:41.238Z,26.1356
2018-03-08T15:47:42.031Z,26.1407
2018-03-08T15:47:42.824Z,26.1457
2018-03-08T15:47:43.823Z,26.1457
2018-03-08T15:47:44.613Z,26.1508
2018-03-08T15:47:45.522Z,26.1457
2018-03-08T15:47:46.604Z,26.1508
2018-03-08T15:47:47.685Z,26.1508
2018-03-08T15:47:48.477Z,26.1558
2018-03-08T15:47:49.285Z,26.166
2018-03-08T15:47:50.364Z,26.1761
2018-03-08T15:47:51.156Z,26.1761
2018-03-08T15:47:52.234Z,26.171
2018-03-08T15:47:53.319Z,26.1913
2018-03-08T15:47:54.113Z,26.1913
2018-03-08T15:47:55.194Z,26.2014
2018-03-08T15:47:55.985Z,26.2014
2018-03-08T15:47:57.067Z,26.2166
2018-03-08T15:47:58.067Z,26.2115
2018-03-08T15:47:58.570Z,26.2065
2018-03-08T15:47:59.652Z,26.2217
2018-03-08T15:48:00.449Z,26.2217
2018-03-08T15:48:01.242Z,26.2318
2018-03-08T15:48:02.328Z,26.2014
2018-03-08T15:48:02.830Z,26.2014
2018-03-08T15:48:04.033Z,26.2115
2018-03-08T15:48:04.825Z,26.2014
2018-03-08T15:48:06.022Z,26.1913
2018-03-08T15:48:07.103Z,26.1862
2018-03-08T15:48:08.101Z,26.1862
2018-03-08T15:48:09.182Z,26.1761
2018-03-08T15:48:10.272Z,26.1761
2018-03-08T15:48:10.774Z,26.1812
2018-03-08T15:48:11.768Z,26.1812
2018-03-08T15:48:12.563Z,26.171
2018-03-08T15:48:13.561Z,26.1761
2018-03-08T15:48:14.366Z,26.171
2018-03-08T15:48:15.164Z,26.1508
2018-03-08T15:48:16.245Z,26.1508
2018-03-08T15:48:17.038Z,26.1508
2018-03-08T15:48:17.832Z,26.1457
2018-03-08T15:48:19.029Z,26.1508
2018-03-08T15:48:20.111Z,26.1305
2018-03-08T15:48:21.108Z,26.1305
2018-03-08T15:48:21.903Z,26.1407
2018-03-08T15:48:22.609Z,26.1356
2018-03-08T15:48:23.401Z,26.1305
2018-03-08T15:48:24.197Z,26.1103
2018-03-08T15:48:25.341Z,26.1103
2018-03-08T15:48:26.135Z,26.1002
2018-03-08T15:48:26.932Z,26.1103
2018-03-08T15:48:28.128Z,26.085
2018-03-08T15:48:29.207Z,26.09
2018-03-08T15:48:30.290Z,26.0799
2018-03-08T15:48:31.369Z,26.0748
2018-03-08T15:48:31.875Z,26.0698
2018-03-08T15:48:32.873Z,26.0647
2018-03-08T15:48:33.666Z,26.0546
2018-03-08T15:48:34.460Z,26.0445
2018-03-08T15:48:34.965Z,26.0495
2018-03-08T15:48:35.760Z,26.0394
2018-03-08T15:48:37.044Z,26.0242
2018-03-08T15:48:38.125Z,26.0141
2018-03-08T15:48:39.154Z,26.009
2018-03-08T15:48:40.285Z,25.9989
2018-03-08T15:48:41.080Z,26.004
2018-03-08T15:48:42.160Z,25.9989
2018-03-08T15:48:43.244Z,25.9989
2018-03-08T15:48:44.036Z,25.9888
2018-03-08T15:48:45.121Z,25.9685
2018-03-08T15:48:46.144Z,25.9584
2018-03-08T15:48:46.650Z,25.9685
2018-03-08T15:48:47.731Z,25.9635
2018-03-08T15:48:48.526Z,25.9584
2018-03-08T15:48:49.607Z,25.9533
2018-03-08T15:48:50.603Z,25.9381
2018-03-08T15:48:51.684Z,25.9381
2018-03-08T15:48:52.477Z,25.928
2018-03-08T15:48:53.271Z,25.928
2018-03-08T15:48:54.354Z,25.9179
2018-03-08T15:48:55.436Z,25.9179
2018-03-08T15:48:55.942Z,25.9179
2018-03-08T15:48:57.138Z,25.9027
2018-03-08T15:48:58.217Z,25.8976
2018-03-08T15:48:59.297Z,25.8875
2018-03-08T15:48:59.804Z,25.8774
2018-03-08T15:49:01.002Z,25.8723
2018-03-08T15:49:02.085Z,25.8723
2018-03-08T15:49:02.881Z,25.8622
2018-03-08T15:49:03.878Z,25.8622
2018-03-08T15:49:04.672Z,25.8521
2018-03-08T15:49:05.468Z,25.8774
2018-03-08T15:49:06.553Z,25.8825
2018-03-08T15:49:07.550Z,25.8926
2018-03-08T15:49:08.342Z,25.8976
2018-03-08T15:49:09.136Z,25.9078
2018-03-08T15:49:10.226Z,25.9381
2018-03-08T15:49:11.019Z,25.923
2018-03-08T15:49:11.853Z,25.9331
2018-03-08T15:49:13.137Z,25.9381
2018-03-08T15:49:13.641Z,25.928
2018-03-08T15:49:14.723Z,25.923
2018-03-08T15:49:15.515Z,25.9179
2018-03-08T15:49:16.598Z,25.9179
2018-03-08T15:49:17.679Z,25.923
2018-03-08T15:49:18.472Z,25.9179
2018-03-08T15:49:18.979Z,25.9078
2018-03-08T15:49:20.176Z,25.9331
2018-03-08T15:49:21.172Z,25.9179
2018-03-08T15:49:21.680Z,25.9179
2018-03-08T15:49:22.471Z,25.9078
2018-03-08T15:49:23.264Z,25.9027
2018-03-08T15:49:24.348Z,25.8774
2018-03-08T15:49:25.143Z,25.8774
2018-03-08T15:49:25.936Z,25.8622
2018-03-08T15:49:26.736Z,25.8673
2018-03-08T15:49:27.523Z,25.8521
2018-03-08T15:49:28.435Z,25.8673
2018-03-08T15:49:29.232Z,25.8673
2018-03-08T15:49:30.311Z,25.8369
2018-03-08T15:49:30.818Z,25.8369
2018-03-08T15:49:32.015Z,25.8217
2018-03-08T15:49:32.809Z,25.8217
2018-03-08T15:49:33.888Z,25.8166
2018-03-08T15:49:34.969Z,25.8065
2018-03-08T15:49:36.051Z,25.8065
2018-03-08T15:49:36.846Z,25.7964
2018-03-08T15:49:37.756Z,25.7964
2018-03-08T15:49:38.549Z,25.7964
2018-03-08T15:49:39.481Z,25.7913
2018-03-08T15:49:40.304Z,25.7761
2018-03-08T15:49:41.097Z,25.7711
2018-03-08T15:49:42.183Z,25.766
2018-03-08T15:49:43.272Z,25.7559
2018-03-08T15:49:44.066Z,25.7457
2018-03-08T15:49:45.148Z,25.7407
2018-03-08T15:49:46.227Z,25.7306
2018-03-08T15:49:46.731Z,25.7154
2018-03-08T15:49:47.525Z,25.7103
2018-03-08T15:49:48.437Z,25.7154
2018-03-08T15:49:48.943Z,25.7103
2018-03-08T15:49:49.852Z,25.6951
2018-03-08T15:49:50.850Z,25.6951
2018-03-08T15:49:51.645Z,25.69
2018-03-08T15:49:52.442Z,25.69
2018-03-08T15:49:52.947Z,25.69
2018-03-08T15:49:54.230Z,25.6749
2018-03-08T15:49:55.024Z,25.6799
2018-03-08T15:49:56.021Z,25.6749
2018-03-08T15:49:56.535Z,25.6749
2018-03-08T15:49:57.531Z,25.6647
2018-03-08T15:49:58.324Z,25.6647
2018-03-08T15:49:59.119Z,25.6597
2018-03-08T15:49:59.910Z,25.6546
2018-03-08T15:50:00.994Z,25.6445
2018-03-08T15:50:01.501Z,25.6445
2018-03-08T15:50:02.501Z,25.6394
2018-03-08T15:50:03.582Z,25.6293
2018-03-08T15:50:04.490Z,25.6293
2018-03-08T15:50:05.363Z,25.6242
2018-03-08T15:50:06.157Z,25.6242
2018-03-08T15:50:06.868Z,25.6192
2018-03-08T15:50:07.663Z,25.6192
2018-03-08T15:50:08.574Z,25.609
2018-03-08T15:50:09.657Z,25.609
2018-03-08T15:50:10.460Z,25.5938
2018-03-08T15:50:11.541Z,25.5989
2018-03-08T15:50:12.622Z,25.5938
2018-03-08T15:50:13.700Z,25.5888
2018-03-08T15:50:14.781Z,25.5837
2018-03-08T15:50:15.574Z,25.5736
2018-03-08T15:50:16.655Z,25.5736
2018-03-08T15:50:17.446Z,25.5635
2018-03-08T15:50:18.243Z,25.5635
2018-03-08T15:50:19.040Z,25.5533
2018-03-08T15:50:19.833Z,25.5331
2018-03-08T15:50:20.742Z,25.5331
2018-03-08T15:50:21.534Z,25.5331
2018-03-08T15:50:22.528Z,25.528
2018-03-08T15:50:23.611Z,25.5128
2018-03-08T15:50:24.694Z,25.5179
2018-03-08T15:50:25.488Z,25.5128
2018-03-08T15:50:26.571Z,25.4976
2018-03-08T15:50:27.568Z,25.4926
2018-03-08T15:50:28.360Z,25.4875
2018-03-08T15:50:29.440Z,25.4824
2018-03-08T15:50:30.521Z,25.4673
2018-03-08T15:50:31.521Z,25.4571
2018-03-08T15:50:32.603Z,25.4571
2018-03-08T15:50:33.690Z,25.447
2018-03-08T15:50:34.483Z,25.4521
2018-03-08T15:50:35.348Z,25.4521
2018-03-08T15:50:36.139Z,25.447
2018-03-08T15:50:37.135Z,25.4419
2018-03-08T15:50:37.929Z,25.4318
2018-03-08T15:50:38.837Z,25.4267
2018-03-08T15:50:39.915Z,25.4318
2018-03-08T15:50:40.995Z,25.4166
2018-03-08T15:50:41.501Z,25.4065
2018-03-08T15:50:42.495Z,25.4116
2018-03-08T15:50:43.287Z,25.4116
2018-03-08T15:50:44.369Z,25.4014
2018-03-08T15:50:45.165Z,25.3964
2018-03-08T15:50:45.956Z,25.3964
2018-03-08T15:50:47.153Z,25.3913
2018-03-08T15:50:47.660Z,25.3812
2018-03-08T15:50:48.454Z,25.3812
2018-03-08T15:50:48.962Z,25.3862
2018-03-08T15:50:49.874Z,25.3761
2018-03-08T15:50:50.871Z,25.3761
2018-03-08T15:50:51.950Z,25.371
2018-03-08T15:50:52.743Z,25.3609
2018-03-08T15:50:53.539Z,25.3559
2018-03-08T15:50:54.621Z,25.3609
2018-03-08T15:50:55.620Z,25.3559
2018-03-08T15:50:56.417Z,25.3457
2018-03-08T15:50:57.207Z,25.3407
2018-03-08T15:50:58.001Z,25.3407
2018-03-08T15:50:58.996Z,25.3356
2018-03-08T15:50:59.502Z,25.3356
2018-03-08T15:51:00.503Z,25.3305
2018-03-08T15:51:01.584Z,25.3153
2018-03-08T15:51:02.497Z,25.3153
2018-03-08T15:51:02.998Z,25.3052
2018-03-08T15:51:04.079Z,25.3002
2018-03-08T15:51:04.870Z,25.3002
2018-03-08T15:51:05.696Z,25.3002
2018-03-08T15:51:06.783Z,25.29
2018-03-08T15:51:07.574Z,25.2799
2018-03-08T15:51:08.568Z,25.2748
2018-03-08T15:51:09.074Z,25.2748
2018-03-08T15:51:10.067Z,25.2748
2018-03-08T15:51:11.061Z,25.2596
2018-03-08T15:51:12.140Z,25.2495
2018-03-08T15:51:12.933Z,25.2495
2018-03-08T15:51:13.842Z,25.2394
2018-03-08T15:51:14.638Z,25.2444
2018-03-08T15:51:15.434Z,25.2495
2018-03-08T15:51:16.230Z,25.2394
2018-03-08T15:51:17.028Z,25.2394
2018-03-08T15:51:17.824Z,25.2394
2018-03-08T15:51:18.734Z,25.2343
2018-03-08T15:51:19.815Z,25.2394
2018-03-08T15:51:20.908Z,25.2293
2018-03-08T15:51:21.607Z,25.2394
2018-03-08T15:51:22.403Z,25.2343
2018-03-08T15:51:23.485Z,25.2242
2018-03-08T15:51:24.565Z,25.2293
2018-03-08T15:51:25.654Z,25.2242
2018-03-08T15:51:26.446Z,25.2191
2018-03-08T15:51:27.527Z,25.2191
2018-03-08T15:51:28.526Z,25.2141
2018-03-08T15:51:29.609Z,25.2191
2018-03-08T15:51:30.690Z,25.2191
2018-03-08T15:51:31.487Z,25.209
2018-03-08T15:51:32.610Z,25.209
2018-03-08T15:51:33.608Z,25.2141
2018-03-08T15:51:34.402Z,25.2242
2018-03-08T15:51:35.480Z,25.2039
2018-03-08T15:51:36.274Z,25.209
2018-03-08T15:51:37.353Z,25.2039
2018-03-08T15:51:38.435Z,25.209
2018-03-08T15:51:39.517Z,25.2141
2018-03-08T15:51:40.511Z,25.209
2018-03-08T15:51:41.306Z,25.209
2018-03-08T15:51:42.097Z,25.2141
2018-03-08T15:51:42.806Z,25.209
2018-03-08T15:51:43.514Z,25.209
2018-03-08T15:51:44.509Z,25.2039
2018-03-08T15:51:45.368Z,25.2039
2018-03-08T15:51:46.449Z,25.1938
2018-03-08T15:51:47.244Z,25.1989
2018-03-08T15:51:48.038Z,25.2039
2018-03-08T15:51:49.117Z,25.209
2018-03-08T15:51:49.912Z,25.2039
2018-03-08T15:51:50.995Z,25.2141
2018-03-08T15:51:51.789Z,25.2039
2018-03-08T15:51:53.072Z,25.2191
2018-03-08T15:51:53.864Z,25.2191
2018-03-08T15:51:54.571Z,25.209
2018-03-08T15:51:55.077Z,25.209
2018-03-08T15:51:55.796Z,25.2039
2018-03-08T15:51:56.985Z,25.2039
2018-03-08T15:51:58.067Z,25.1887
2018-03-08T15:51:59.066Z,25.1837
2018-03-08T15:52:00.147Z,25.1938
2018-03-08T15:52:01.227Z,25.1989
2018-03-08T15:52:02.020Z,25.1938
2018-03-08T15:52:02.823Z,25.1887
2018-03-08T15:52:04.018Z,25.1887
2018-03-08T15:52:04.817Z,25.1938
2018-03-08T15:52:05.962Z,25.2039
2018-03-08T15:52:06.758Z,25.1938
2018-03-08T15:52:08.156Z,25.1989
2018-03-08T15:52:08.949Z,25.1989
2018-03-08T15:52:10.030Z,25.1938
2018-03-08T15:52:11.116Z,25.1989
2018-03-08T15:52:12.108Z,25.1989
2018-03-08T15:52:12.903Z,25.209
2018-03-08T15:52:13.983Z,25.2141
2018-03-08T15:52:14.776Z,25.2141
2018-03-08T15:52:16.064Z,25.2141
2018-03-08T15:52:17.143Z,25.2242
2018-03-08T15:52:18.138Z,25.2293
2018-03-08T15:52:19.225Z,25.2293
2018-03-08T15:52:20.019Z,25.2242
2018-03-08T15:52:20.816Z,25.2293
2018-03-08T15:52:22.106Z,25.2242
2018-03-08T15:52:22.903Z,25.2343
2018-03-08T15:52:23.814Z,25.2394
2018-03-08T15:52:24.522Z,25.2394
2018-03-08T15:52:25.518Z,25.2242
2018-03-08T15:52:26.598Z,25.2293
2018-03-08T15:52:27.596Z,25.2293
2018-03-08T15:52:28.389Z,25.2191
2018-03-08T15:52:29.183Z,25.2293
2018-03-08T15:52:29.985Z,25.2293
2018-03-08T15:52:31.074Z,25.2343
2018-03-08T15:52:31.781Z,25.2293
2018-03-08T15:52:32.575Z,25.2293
2018-03-08T15:52:33.572Z,25.2141
2018-03-08T15:52:34.371Z,25.2293
2018-03-08T15:52:35.164Z,25.2242
2018-03-08T15:52:36.246Z,25.2191
2018-03-08T15:52:37.327Z,25.209
2018-03-08T15:52:38.410Z,25.209
2018-03-08T15:52:39.491Z,25.1989
2018-03-08T15:52:40.282Z,25.1989
2018-03-08T15:52:41.364Z,25.1887
2018-03-08T15:52:42.159Z,25.1887
2018-03-08T15:52:43.153Z,25.1837
2018-03-08T15:52:44.233Z,25.1736
2018-03-08T15:52:45.390Z,25.1786
2018-03-08T15:52:45.894Z,25.1837
2018-03-08T15:52:47.178Z,25.1736
2018-03-08T15:52:47.691Z,25.1584
2018-03-08T15:52:48.483Z,25.1685
2018-03-08T15:52:49.566Z,25.1584
2018-03-08T15:52:50.649Z,25.1584
2018-03-08T15:52:51.450Z,25.1584
2018-03-08T15:52:52.245Z,25.1381
2018-03-08T15:52:52.951Z,25.1482
2018-03-08T15:52:54.034Z,25.1432
2018-03-08T15:52:54.537Z,25.1432
2018-03-08T15:52:55.534Z,25.1432
2018-03-08T15:52:56.042Z,25.128
2018-03-08T15:52:57.246Z,25.1178
2018-03-08T15:52:58.037Z,25.1178
2018-03-08T15:52:58.832Z,25.128
2018-03-08T15:53:00.031Z,25.128
2018-03-08T15:53:00.830Z,25.1128
2018-03-08T15:53:02.115Z,25.1178
2018-03-08T15:53:02.906Z,25.1128
2018-03-08T15:53:03.701Z,25.1077
2018-03-08T15:53:04.611Z,25.1077
2018-03-08T15:53:05.445Z,25.0976
2018-03-08T15:53:06.240Z,25.0976
2018-03-08T15:53:07.234Z,25.0875
2018-03-08T15:53:08.025Z,25.0824
2018-03-08T15:53:09.105Z,25.0773
2018-03-08T15:53:09.899Z,25.0773
2018-03-08T15:53:10.810Z,25.0672
2018-03-08T15:53:11.890Z,25.0621
2018-03-08T15:53:12.973Z,25.047
2018-03-08T15:53:14.055Z,25.047
2018-03-08T15:53:14.850Z,25.0368
2018-03-08T15:53:15.982Z,25.0368
2018-03-08T15:53:16.822Z,25.0318
2018-03-08T15:53:17.901Z,25.0267
2018-03-08T15:53:18.703Z,25.0216
2018-03-08T15:53:19.498Z,25.0267
2018-03-08T15:53:20.583Z,25.0115
2018-03-08T15:53:21.665Z,25.0064
2018-03-08T15:53:22.750Z,25.0014
2018-03-08T15:53:23.834Z,24.9912
2018-03-08T15:53:24.543Z,24.9912
2018-03-08T15:53:25.371Z,24.9761
2018-03-08T15:53:26.455Z,24.9811
2018-03-08T15:53:27.249Z,24.9811
2018-03-08T15:53:27.755Z,24.9761
2018-03-08T15:53:29.155Z,24.9761
2018-03-08T15:53:29.947Z,24.9761
2018-03-08T15:53:30.742Z,24.9659
2018-03-08T15:53:31.652Z,24.9609
2018-03-08T15:53:32.445Z,24.9761
2018-03-08T15:53:33.239Z,24.9558
2018-03-08T15:53:34.033Z,24.9558
2018-03-08T15:53:35.111Z,24.9558
2018-03-08T15:53:35.904Z,24.9507
2018-03-08T15:53:36.697Z,24.9558
2018-03-08T15:53:37.693Z,24.9457
2018-03-08T15:53:38.606Z,24.9558
2018-03-08T15:53:39.402Z,24.9507
2018-03-08T15:53:40.194Z,24.9457
2018-03-08T15:53:40.700Z,24.9355
2018-03-08T15:53:41.780Z,24.9457
2018-03-08T15:53:42.862Z,24.9254
2018-03-08T15:53:43.946Z,24.9305
2018-03-08T15:53:44.738Z,24.9457
2018-03-08T15:53:45.535Z,24.9406
2018-03-08T15:53:46.445Z,24.9305
2018-03-08T15:53:47.526Z,24.9355
2018-03-08T15:53:48.617Z,24.9406
2018-03-08T15:53:49.695Z,24.9254
2018-03-08T15:53:50.488Z,24.9457
2018-03-08T15:53:51.572Z,24.9355
2018-03-08T15:53:52.568Z,24.9457
2018-03-08T15:53:53.650Z,24.9558
2018-03-08T15:53:54.444Z,24.9406
2018-03-08T15:53:55.242Z,24.9305
2018-03-08T15:53:56.235Z,24.9406
2018-03-08T15:53:57.029Z,24.9305
2018-03-08T15:53:58.107Z,24.9457
2018-03-08T15:53:58.901Z,24.9305
2018-03-08T15:54:00.100Z,24.9507
2018-03-08T15:54:00.604Z,24.9457
2018-03-08T15:54:01.600Z,24.9507
2018-03-08T15:54:02.393Z,24.9558
2018-03-08T15:54:03.473Z,24.9457
2018-03-08T15:54:04.556Z,24.9406
2018-03-08T15:54:05.566Z,24.9406
2018-03-08T15:54:06.650Z,24.9457
2018-03-08T15:54:07.734Z,24.9406
2018-03-08T15:54:08.820Z,24.9406
2018-03-08T15:54:09.903Z,24.9406
2018-03-08T15:54:10.988Z,24.9507
2018-03-08T15:54:12.066Z,24.9558
2018-03-08T15:54:12.862Z,24.9457
2018-03-08T15:54:13.774Z,24.9457
2018-03-08T15:54:14.568Z,24.9457
2018-03-08T15:54:15.436Z,24.9457
2018-03-08T15:54:16.230Z,24.9457
2018-03-08T15:54:17.318Z,24.9507
2018-03-08T15:54:18.399Z,24.9406
2018-03-08T15:54:18.906Z,24.9457
2018-03-08T15:54:20.107Z,24.9457
2018-03-08T15:54:20.900Z,24.9457
2018-03-08T15:54:21.985Z,24.9457
2018-03-08T15:54:23.071Z,24.9254
2018-03-08T15:54:23.868Z,24.9305
2018-03-08T15:54:25.152Z,24.9254
2018-03-08T15:54:26.235Z,24.9203
2018-03-08T15:54:27.321Z,24.9254
2018-03-08T15:54:28.115Z,24.9203
2018-03-08T15:54:28.908Z,24.9153
2018-03-08T15:54:29.996Z,24.9254
2018-03-08T15:54:30.500Z,24.9254
2018-03-08T15:54:31.496Z,24.9102
2018-03-08T15:54:32.290Z,24.9153
2018-03-08T15:54:33.083Z,24.9153
2018-03-08T15:54:34.166Z,24.9153
2018-03-08T15:54:35.196Z,24.9203
2018-03-08T15:54:36.315Z,24.9153
2018-03-08T15:54:37.536Z,24.9153
2018-03-08T15:54:38.341Z,24.9052
2018-03-08T15:54:39.203Z,24.9153
2018-03-08T15:54:40.175Z,24.9001
2018-03-08T15:54:41.005Z,24.9001
2018-03-08T15:54:42.256Z,24.9102
2018-03-08T15:54:43.387Z,24.9001
2018-03-08T15:54:44.182Z,24.895
2018-03-08T15:54:44.979Z,24.89
2018-03-08T15:54:46.174Z,24.895
2018-03-08T15:54:47.260Z,24.895
2018-03-08T15:54:48.054Z,24.89
2018-03-08T15:54:48.848Z,24.895
2018-03-08T15:54:50.130Z,24.9052
2018-03-08T15:54:50.925Z,24.89
2018-03-08T15:54:52.125Z,24.895
2018-03-08T15:54:52.630Z,24.9001
2018-03-08T15:54:53.717Z,24.9001
2018-03-08T15:54:54.629Z,24.895
2018-03-08T15:54:55.455Z,24.9001
2018-03-08T15:54:56.534Z,24.89
2018-03-08T15:54:57.613Z,24.8849
2018-03-08T15:54:58.610Z,24.89
2018-03-08T15:54:59.692Z,24.8748
2018-03-08T15:55:00.486Z,24.8849
2018-03-08T15:55:01.294Z,24.8849
2018-03-08T15:55:02.382Z,24.8849
2018-03-08T15:55:03.468Z,24.8697
2018-03-08T15:55:04.260Z,24.8646
2018-03-08T15:55:05.055Z,24.8646
2018-03-08T15:55:05.849Z,24.8646
2018-03-08T15:55:06.761Z,24.8646
2018-03-08T15:55:07.556Z,24.8646
2018-03-08T15:55:08.635Z,24.8545
2018-03-08T15:55:09.629Z,24.8646
2018-03-08T15:55:10.590Z,24.8545
2018-03-08T15:55:11.585Z,24.8494
2018-03-08T15:55:12.101Z,24.8444
2018-03-08T15:55:13.183Z,24.8393
2018-03-08T15:55:14.179Z,24.8444
2018-03-08T15:55:14.969Z,24.8343
2018-03-08T15:55:15.763Z,24.8343
2018-03-08T15:55:17.165Z,24.8241
2018-03-08T15:55:18.247Z,24.8292
2018-03-08T15:55:19.329Z,24.8089
2018-03-08T15:55:20.123Z,24.8089
2018-03-08T15:55:20.835Z,24.8039
2018-03-08T15:55:21.629Z,24.8089
2018-03-08T15:55:22.623Z,24.7988
2018-03-08T15:55:23.415Z,24.7937
2018-03-08T15:55:24.495Z,24.7836
2018-03-08T15:55:25.492Z,24.7937
2018-03-08T15:55:26.001Z,24.7836
2018-03-08T15:55:27.083Z,24.7836
2018-03-08T15:55:27.790Z,24.7785
2018-03-08T15:55:28.871Z,24.7735
2018-03-08T15:55:29.674Z,24.7735
2018-03-08T15:55:30.583Z,24.7735
2018-03-08T15:55:31.676Z,24.7634
2018-03-08T15:55:32.469Z,24.7532
2018-03-08T15:55:33.551Z,24.7634
2018-03-08T15:55:34.549Z,24.7482
2018-03-08T15:55:35.407Z,24.7482
2018-03-08T15:55:35.913Z,24.7532
2018-03-08T15:55:36.992Z,24.7532
2018-03-08T15:55:38.076Z,24.7431
2018-03-08T15:55:39.072Z,24.7431
2018-03-08T15:55:40.156Z,24.733
2018-03-08T15:55:41.237Z,24.738
2018-03-08T15:55:42.318Z,24.7431
2018-03-08T15:55:43.398Z,24.733
2018-03-08T15:55:44.191Z,24.733
2018-03-08T15:55:45.273Z,24.733
2018-03-08T15:55:45.780Z,24.733
2018-03-08T15:55:47.063Z,24.7228
2018-03-08T15:55:47.857Z,24.7228
2018-03-08T15:55:48.953Z,24.7178
2018-03-08T15:55:50.032Z,24.7178
2018-03-08T15:55:50.824Z,24.7279
2018-03-08T15:55:51.820Z,24.7127
2018-03-08T15:55:52.904Z,24.7127
2018-03-08T15:55:54.025Z,24.7127
2018-03-08T15:55:54.817Z,24.7076
2018-03-08T15:55:55.812Z,24.7127
2018-03-08T15:55:56.895Z,24.7026
2018-03-08T15:55:57.689Z,24.7026
2018-03-08T15:55:58.484Z,24.7026
2018-03-08T15:55:58.991Z,24.6925
2018-03-08T15:55:59.795Z,24.7026
2018-03-08T15:56:00.992Z,24.6925
2018-03-08T15:56:01.788Z,24.6823
2018-03-08T15:56:02.591Z,24.6925
2018-03-08T15:56:03.586Z,24.6823
2018-03-08T15:56:04.389Z,24.6823
2018-03-08T15:56:05.177Z,24.6874
2018-03-08T15:56:06.024Z,24.6874
2018-03-08T15:56:07.105Z,24.6874
2018-03-08T15:56:08.101Z,24.6823
2018-03-08T15:56:08.899Z,24.6823
2018-03-08T15:56:09.694Z,24.6823
2018-03-08T15:56:10.603Z,24.6823
2018-03-08T15:56:11.597Z,24.6823